sensor_id;sensor_type;location;lat;lon;timestamp;P1;durP1;ratioP1;P2;durP2;ratioP2
48667;SDS011;34453;52.198;5.004;2023-07-16T00:00:51;5.32;;;1.95;;
48667;SDS011;34453;52.198;5.004;2023-07-16T00:03:16;12.57;;;2.38;;
48667;SDS011;34453;52.198;5.004;2023-07-16T00:05:42;13.40;;;2.03;;
48667;SDS011;34453;52.198;5.004;2023-07-16T00:08:07;7.00;;;1.48;;
48667;SDS011;34453;52.198;5.004;2023-07-16T00:10:36;9.73;;;1.95;;
48667;SDS011;34453;52.198;5.004;2023-07-16T00:13:04;9.70;;;1.88;;
48667;SDS011;34453;52.198;5.004;2023-07-16T00:15:30;5.85;;;2.22;;
48667;SDS011;34453;52.198;5.004;2023-07-16T00:17:55;6.25;;;2.35;;
48667;SDS011;34453;52.198;5.004;2023-07-16T00:20:21;7.47;;;1.80;;
48667;SDS011;34453;52.198;5.004;2023-07-16T00:22:49;8.88;;;1.80;;
48667;SDS011;34453;52.198;5.004;2023-07-16T00:25:14;8.73;;;2.67;;
48667;SDS011;34453;52.198;5.004;2023-07-16T00:27:40;8.63;;;1.95;;
48667;SDS011;34453;52.198;5.004;2023-07-16T00:30:05;9.85;;;2.10;;
48667;SDS011;34453;52.198;5.004;2023-07-16T00:32:32;5.78;;;1.98;;
48667;SDS011;34453;52.198;5.004;2023-07-16T00:34:58;8.45;;;2.65;;
48667;SDS011;34453;52.198;5.004;2023-07-16T00:37:23;13.68;;;3.22;;
48667;SDS011;34453;52.198;5.004;2023-07-16T00:39:48;8.95;;;1.88;;
48667;SDS011;34453;52.198;5.004;2023-07-16T00:42:14;11.55;;;2.85;;
48667;SDS011;34453;52.198;5.004;2023-07-16T00:44:40;9.07;;;2.03;;
48667;SDS011;34453;52.198;5.004;2023-07-16T00:47:05;14.20;;;2.88;;
48667;SDS011;34453;52.198;5.004;2023-07-16T00:49:31;11.13;;;2.50;;
48667;SDS011;34453;52.198;5.004;2023-07-16T00:51:58;10.32;;;1.90;;
48667;SDS011;34453;52.198;5.004;2023-07-16T00:54:25;5.97;;;2.20;;
48667;SDS011;34453;52.198;5.004;2023-07-16T00:56:51;9.75;;;2.00;;
48667;SDS011;34453;52.198;5.004;2023-07-16T00:59:17;8.48;;;2.53;;
48667;SDS011;34453;52.198;5.004;2023-07-16T01:01:42;7.68;;;2.72;;
48667;SDS011;34453;52.198;5.004;2023-07-16T01:04:07;8.43;;;2.40;;
48667;SDS011;34453;52.198;5.004;2023-07-16T01:06:50;11.52;;;2.83;;
48667;SDS011;34453;52.198;5.004;2023-07-16T01:09:19;6.47;;;2.90;;
48667;SDS011;34453;52.198;5.004;2023-07-16T01:11:45;14.02;;;3.30;;
48667;SDS011;34453;52.198;5.004;2023-07-16T01:14:12;8.10;;;2.40;;
48667;SDS011;34453;52.198;5.004;2023-07-16T01:16:41;7.35;;;2.88;;
48667;SDS011;34453;52.198;5.004;2023-07-16T01:19:06;13.23;;;2.30;;
48667;SDS011;34453;52.198;5.004;2023-07-16T01:24:35;6.30;;;2.72;;
48667;SDS011;34453;52.198;5.004;2023-07-16T01:30:01;8.85;;;4.00;;
48667;SDS011;34453;52.198;5.004;2023-07-16T01:32:29;9.68;;;2.17;;
48667;SDS011;34453;52.198;5.004;2023-07-16T01:34:55;7.03;;;2.47;;
48667;SDS011;34453;52.198;5.004;2023-07-16T01:37:22;10.18;;;3.47;;
48667;SDS011;34453;52.198;5.004;2023-07-16T01:39:48;5.28;;;3.22;;
48667;SDS011;34453;52.198;5.004;2023-07-16T01:42:14;5.45;;;3.03;;
48667;SDS011;34453;52.198;5.004;2023-07-16T01:44:39;5.43;;;2.80;;
48667;SDS011;34453;52.198;5.004;2023-07-16T01:47:06;15.13;;;3.72;;
48667;SDS011;34453;52.198;5.004;2023-07-16T01:49:35;8.30;;;2.55;;
48667;SDS011;34453;52.198;5.004;2023-07-16T01:52:01;11.52;;;3.50;;
48667;SDS011;34453;52.198;5.004;2023-07-16T01:54:28;9.88;;;3.38;;
48667;SDS011;34453;52.198;5.004;2023-07-16T01:56:53;10.23;;;3.08;;
48667;SDS011;34453;52.198;5.004;2023-07-16T01:59:19;8.88;;;3.10;;
48667;SDS011;34453;52.198;5.004;2023-07-16T02:01:44;11.65;;;3.20;;
48667;SDS011;34453;52.198;5.004;2023-07-16T02:04:10;9.55;;;4.07;;
48667;SDS011;34453;52.198;5.004;2023-07-16T02:06:35;6.35;;;3.70;;
48667;SDS011;34453;52.198;5.004;2023-07-16T02:09:00;11.25;;;5.25;;
48667;SDS011;34453;52.198;5.004;2023-07-16T02:11:26;7.35;;;3.90;;
48667;SDS011;34453;52.198;5.004;2023-07-16T02:13:51;6.55;;;4.15;;
48667;SDS011;34453;52.198;5.004;2023-07-16T02:16:17;14.23;;;3.75;;
48667;SDS011;34453;52.198;5.004;2023-07-16T02:18:42;9.02;;;3.60;;
48667;SDS011;34453;52.198;5.004;2023-07-16T02:21:07;17.27;;;4.07;;
48667;SDS011;34453;52.198;5.004;2023-07-16T02:23:33;10.77;;;3.42;;
48667;SDS011;34453;52.198;5.004;2023-07-16T02:25:58;11.98;;;4.65;;
48667;SDS011;34453;52.198;5.004;2023-07-16T02:28:24;13.05;;;4.20;;
48667;SDS011;34453;52.198;5.004;2023-07-16T02:30:49;6.35;;;3.78;;
48667;SDS011;34453;52.198;5.004;2023-07-16T02:33:16;10.35;;;3.72;;
48667;SDS011;34453;52.198;5.004;2023-07-16T02:35:45;7.55;;;4.40;;
48667;SDS011;34453;52.198;5.004;2023-07-16T02:38:12;9.00;;;3.92;;
48667;SDS011;34453;52.198;5.004;2023-07-16T02:40:42;13.27;;;3.80;;
48667;SDS011;34453;52.198;5.004;2023-07-16T02:43:09;7.88;;;5.18;;
48667;SDS011;34453;52.198;5.004;2023-07-16T02:45:34;14.63;;;3.50;;
48667;SDS011;34453;52.198;5.004;2023-07-16T02:47:59;17.65;;;4.35;;
48667;SDS011;34453;52.198;5.004;2023-07-16T02:50:25;14.70;;;4.82;;
48667;SDS011;34453;52.198;5.004;2023-07-16T02:52:50;9.40;;;4.03;;
48667;SDS011;34453;52.198;5.004;2023-07-16T02:55:16;8.48;;;4.15;;
48667;SDS011;34453;52.198;5.004;2023-07-16T02:57:41;8.45;;;3.83;;
48667;SDS011;34453;52.198;5.004;2023-07-16T03:00:07;14.48;;;5.60;;
48667;SDS011;34453;52.198;5.004;2023-07-16T03:02:33;5.38;;;3.67;;
48667;SDS011;34453;52.198;5.004;2023-07-16T03:04:58;9.20;;;4.55;;
48667;SDS011;34453;52.198;5.004;2023-07-16T03:07:24;14.68;;;4.55;;
48667;SDS011;34453;52.198;5.004;2023-07-16T03:09:49;11.63;;;4.00;;
48667;SDS011;34453;52.198;5.004;2023-07-16T03:12:15;10.30;;;3.75;;
48667;SDS011;34453;52.198;5.004;2023-07-16T03:14:40;18.33;;;4.20;;
48667;SDS011;34453;52.198;5.004;2023-07-16T03:17:06;20.35;;;5.60;;
48667;SDS011;34453;52.198;5.004;2023-07-16T03:19:31;11.10;;;5.05;;
48667;SDS011;34453;52.198;5.004;2023-07-16T03:21:57;11.75;;;3.83;;
48667;SDS011;34453;52.198;5.004;2023-07-16T03:24:23;11.63;;;3.33;;
48667;SDS011;34453;52.198;5.004;2023-07-16T03:26:48;6.35;;;4.38;;
48667;SDS011;34453;52.198;5.004;2023-07-16T03:29:13;5.68;;;2.97;;
48667;SDS011;34453;52.198;5.004;2023-07-16T03:31:39;10.75;;;3.35;;
48667;SDS011;34453;52.198;5.004;2023-07-16T03:34:04;15.07;;;3.70;;
48667;SDS011;34453;52.198;5.004;2023-07-16T03:36:30;12.02;;;3.47;;
48667;SDS011;34453;52.198;5.004;2023-07-16T03:38:56;8.38;;;3.17;;
48667;SDS011;34453;52.198;5.004;2023-07-16T03:41:21;11.73;;;3.45;;
48667;SDS011;34453;52.198;5.004;2023-07-16T03:43:46;9.52;;;3.45;;
48667;SDS011;34453;52.198;5.004;2023-07-16T03:46:12;5.22;;;2.80;;
48667;SDS011;34453;52.198;5.004;2023-07-16T03:48:37;7.30;;;5.50;;
48667;SDS011;34453;52.198;5.004;2023-07-16T03:51:03;4.72;;;3.53;;
48667;SDS011;34453;52.198;5.004;2023-07-16T03:53:28;8.85;;;3.00;;
48667;SDS011;34453;52.198;5.004;2023-07-16T03:55:54;7.50;;;2.85;;
48667;SDS011;34453;52.198;5.004;2023-07-16T03:58:19;16.27;;;4.47;;
48667;SDS011;34453;52.198;5.004;2023-07-16T04:00:44;8.88;;;3.50;;
48667;SDS011;34453;52.198;5.004;2023-07-16T04:03:10;8.52;;;3.35;;
48667;SDS011;34453;52.198;5.004;2023-07-16T04:05:35;6.95;;;3.22;;
48667;SDS011;34453;52.198;5.004;2023-07-16T04:08:01;6.63;;;3.47;;
48667;SDS011;34453;52.198;5.004;2023-07-16T04:10:26;9.85;;;3.70;;
48667;SDS011;34453;52.198;5.004;2023-07-16T04:12:52;13.13;;;3.95;;
48667;SDS011;34453;52.198;5.004;2023-07-16T04:15:17;13.38;;;3.70;;
48667;SDS011;34453;52.198;5.004;2023-07-16T04:17:42;8.65;;;3.63;;
48667;SDS011;34453;52.198;5.004;2023-07-16T04:20:08;13.93;;;4.20;;
48667;SDS011;34453;52.198;5.004;2023-07-16T04:22:34;10.05;;;4.00;;
48667;SDS011;34453;52.198;5.004;2023-07-16T04:25:00;5.75;;;3.95;;
48667;SDS011;34453;52.198;5.004;2023-07-16T04:27:26;7.85;;;4.30;;
48667;SDS011;34453;52.198;5.004;2023-07-16T04:29:51;14.32;;;3.85;;
48667;SDS011;34453;52.198;5.004;2023-07-16T04:32:17;18.45;;;5.10;;
48667;SDS011;34453;52.198;5.004;2023-07-16T04:34:43;10.48;;;4.10;;
48667;SDS011;34453;52.198;5.004;2023-07-16T04:37:09;10.50;;;3.88;;
48667;SDS011;34453;52.198;5.004;2023-07-16T04:39:34;11.77;;;4.03;;
48667;SDS011;34453;52.198;5.004;2023-07-16T04:42:00;8.18;;;4.50;;
48667;SDS011;34453;52.198;5.004;2023-07-16T04:44:25;9.68;;;4.00;;
48667;SDS011;34453;52.198;5.004;2023-07-16T04:46:50;12.95;;;4.40;;
48667;SDS011;34453;52.198;5.004;2023-07-16T04:49:16;7.60;;;5.13;;
48667;SDS011;34453;52.198;5.004;2023-07-16T04:51:41;9.25;;;4.22;;
48667;SDS011;34453;52.198;5.004;2023-07-16T04:54:07;7.57;;;4.00;;
48667;SDS011;34453;52.198;5.004;2023-07-16T04:56:32;10.60;;;5.57;;
48667;SDS011;34453;52.198;5.004;2023-07-16T04:58:57;7.65;;;4.03;;
48667;SDS011;34453;52.198;5.004;2023-07-16T05:01:23;6.80;;;3.85;;
48667;SDS011;34453;52.198;5.004;2023-07-16T05:03:48;10.38;;;4.50;;
48667;SDS011;34453;52.198;5.004;2023-07-16T05:06:14;16.13;;;5.43;;
48667;SDS011;34453;52.198;5.004;2023-07-16T05:08:39;13.40;;;5.28;;
48667;SDS011;34453;52.198;5.004;2023-07-16T05:11:05;15.57;;;4.95;;
48667;SDS011;34453;52.198;5.004;2023-07-16T05:13:30;5.57;;;3.90;;
48667;SDS011;34453;52.198;5.004;2023-07-16T05:15:56;6.30;;;3.95;;
48667;SDS011;34453;52.198;5.004;2023-07-16T05:18:21;11.18;;;4.30;;
48667;SDS011;34453;52.198;5.004;2023-07-16T05:20:47;10.80;;;4.63;;
48667;SDS011;34453;52.198;5.004;2023-07-16T05:23:13;15.55;;;4.35;;
48667;SDS011;34453;52.198;5.004;2023-07-16T05:25:39;6.85;;;4.63;;
48667;SDS011;34453;52.198;5.004;2023-07-16T05:28:10;6.00;;;4.28;;
48667;SDS011;34453;52.198;5.004;2023-07-16T05:30:35;11.80;;;4.05;;
48667;SDS011;34453;52.198;5.004;2023-07-16T05:33:00;6.43;;;3.45;;
48667;SDS011;34453;52.198;5.004;2023-07-16T05:35:26;11.23;;;5.85;;
48667;SDS011;34453;52.198;5.004;2023-07-16T05:37:51;6.45;;;4.22;;
48667;SDS011;34453;52.198;5.004;2023-07-16T05:40:17;8.30;;;4.10;;
48667;SDS011;34453;52.198;5.004;2023-07-16T05:42:42;9.20;;;4.28;;
48667;SDS011;34453;52.198;5.004;2023-07-16T05:45:07;10.48;;;4.47;;
48667;SDS011;34453;52.198;5.004;2023-07-16T05:47:33;7.18;;;4.30;;
48667;SDS011;34453;52.198;5.004;2023-07-16T05:49:59;7.20;;;3.80;;
48667;SDS011;34453;52.198;5.004;2023-07-16T05:52:25;9.48;;;3.90;;
48667;SDS011;34453;52.198;5.004;2023-07-16T05:54:50;8.65;;;5.00;;
48667;SDS011;34453;52.198;5.004;2023-07-16T05:57:16;9.15;;;4.20;;
48667;SDS011;34453;52.198;5.004;2023-07-16T05:59:41;11.10;;;4.75;;
48667;SDS011;34453;52.198;5.004;2023-07-16T06:02:07;7.15;;;3.85;;
48667;SDS011;34453;52.198;5.004;2023-07-16T06:04:33;7.90;;;4.18;;
48667;SDS011;34453;52.198;5.004;2023-07-16T06:06:58;10.20;;;4.20;;
48667;SDS011;34453;52.198;5.004;2023-07-16T06:09:24;10.35;;;4.88;;
48667;SDS011;34453;52.198;5.004;2023-07-16T06:11:50;3.72;;;3.40;;
48667;SDS011;34453;52.198;5.004;2023-07-16T06:14:15;7.78;;;4.13;;
48667;SDS011;34453;52.198;5.004;2023-07-16T06:16:41;7.65;;;4.28;;
48667;SDS011;34453;52.198;5.004;2023-07-16T06:19:07;7.10;;;4.70;;
48667;SDS011;34453;52.198;5.004;2023-07-16T06:21:32;12.20;;;5.43;;
48667;SDS011;34453;52.198;5.004;2023-07-16T06:23:58;9.48;;;4.57;;
48667;SDS011;34453;52.198;5.004;2023-07-16T06:26:23;7.55;;;4.03;;
48667;SDS011;34453;52.198;5.004;2023-07-16T06:28:49;9.02;;;5.22;;
48667;SDS011;34453;52.198;5.004;2023-07-16T06:31:15;8.15;;;4.82;;
48667;SDS011;34453;52.198;5.004;2023-07-16T06:33:44;7.95;;;5.05;;
48667;SDS011;34453;52.198;5.004;2023-07-16T06:36:11;9.07;;;4.93;;
48667;SDS011;34453;52.198;5.004;2023-07-16T06:38:37;10.73;;;4.40;;
48667;SDS011;34453;52.198;5.004;2023-07-16T06:41:02;6.53;;;4.00;;
48667;SDS011;34453;52.198;5.004;2023-07-16T06:43:28;7.70;;;4.10;;
48667;SDS011;34453;52.198;5.004;2023-07-16T06:45:53;8.80;;;4.80;;
48667;SDS011;34453;52.198;5.004;2023-07-16T06:48:19;8.32;;;4.50;;
48667;SDS011;34453;52.198;5.004;2023-07-16T06:50:44;10.65;;;4.80;;
48667;SDS011;34453;52.198;5.004;2023-07-16T06:53:10;11.15;;;5.30;;
48667;SDS011;34453;52.198;5.004;2023-07-16T06:55:36;6.32;;;4.30;;
48667;SDS011;34453;52.198;5.004;2023-07-16T06:58:01;9.65;;;5.38;;
48667;SDS011;34453;52.198;5.004;2023-07-16T07:00:28;6.40;;;4.57;;
48667;SDS011;34453;52.198;5.004;2023-07-16T07:02:54;7.32;;;4.30;;
48667;SDS011;34453;52.198;5.004;2023-07-16T07:05:19;10.98;;;4.82;;
48667;SDS011;34453;52.198;5.004;2023-07-16T07:07:45;10.82;;;4.00;;
48667;SDS011;34453;52.198;5.004;2023-07-16T07:10:11;12.98;;;5.95;;
48667;SDS011;34453;52.198;5.004;2023-07-16T07:12:37;7.75;;;4.22;;
48667;SDS011;34453;52.198;5.004;2023-07-16T07:15:05;12.50;;;4.80;;
48667;SDS011;34453;52.198;5.004;2023-07-16T07:17:31;7.03;;;5.38;;
48667;SDS011;34453;52.198;5.004;2023-07-16T07:19:57;15.73;;;4.85;;
48667;SDS011;34453;52.198;5.004;2023-07-16T07:22:22;15.98;;;4.28;;
48667;SDS011;34453;52.198;5.004;2023-07-16T07:24:48;4.35;;;3.97;;
48667;SDS011;34453;52.198;5.004;2023-07-16T07:27:14;8.07;;;4.55;;
48667;SDS011;34453;52.198;5.004;2023-07-16T07:29:39;7.75;;;4.15;;
48667;SDS011;34453;52.198;5.004;2023-07-16T07:32:05;6.88;;;4.60;;
48667;SDS011;34453;52.198;5.004;2023-07-16T07:34:31;16.10;;;7.45;;
48667;SDS011;34453;52.198;5.004;2023-07-16T07:36:56;11.02;;;5.05;;
48667;SDS011;34453;52.198;5.004;2023-07-16T07:39:22;9.55;;;4.05;;
48667;SDS011;34453;52.198;5.004;2023-07-16T07:41:47;10.23;;;4.05;;
48667;SDS011;34453;52.198;5.004;2023-07-16T07:44:13;11.48;;;5.72;;
48667;SDS011;34453;52.198;5.004;2023-07-16T07:46:38;13.07;;;4.75;;
48667;SDS011;34453;52.198;5.004;2023-07-16T07:49:04;13.75;;;6.38;;
48667;SDS011;34453;52.198;5.004;2023-07-16T07:51:29;9.10;;;4.78;;
48667;SDS011;34453;52.198;5.004;2023-07-16T07:53:55;10.32;;;5.00;;
48667;SDS011;34453;52.198;5.004;2023-07-16T07:56:20;7.63;;;4.82;;
48667;SDS011;34453;52.198;5.004;2023-07-16T07:58:45;14.52;;;5.55;;
48667;SDS011;34453;52.198;5.004;2023-07-16T08:01:11;13.45;;;6.28;;
48667;SDS011;34453;52.198;5.004;2023-07-16T08:03:36;13.68;;;6.03;;
48667;SDS011;34453;52.198;5.004;2023-07-16T08:06:02;6.00;;;4.70;;
48667;SDS011;34453;52.198;5.004;2023-07-16T08:08:27;11.15;;;4.75;;
48667;SDS011;34453;52.198;5.004;2023-07-16T08:10:54;14.52;;;4.97;;
48667;SDS011;34453;52.198;5.004;2023-07-16T08:13:20;13.27;;;5.25;;
48667;SDS011;34453;52.198;5.004;2023-07-16T08:15:45;11.57;;;6.40;;
48667;SDS011;34453;52.198;5.004;2023-07-16T08:18:12;15.85;;;6.45;;
48667;SDS011;34453;52.198;5.004;2023-07-16T08:20:38;17.33;;;5.03;;
48667;SDS011;34453;52.198;5.004;2023-07-16T08:23:05;11.90;;;5.00;;
48667;SDS011;34453;52.198;5.004;2023-07-16T08:25:31;7.30;;;5.30;;
48667;SDS011;34453;52.198;5.004;2023-07-16T08:27:56;14.93;;;5.00;;
48667;SDS011;34453;52.198;5.004;2023-07-16T08:30:22;11.20;;;5.20;;
48667;SDS011;34453;52.198;5.004;2023-07-16T08:32:49;11.82;;;5.35;;
48667;SDS011;34453;52.198;5.004;2023-07-16T08:35:15;11.27;;;5.25;;
48667;SDS011;34453;52.198;5.004;2023-07-16T08:37:43;12.95;;;5.45;;
48667;SDS011;34453;52.198;5.004;2023-07-16T08:40:09;8.40;;;5.30;;
48667;SDS011;34453;52.198;5.004;2023-07-16T08:42:36;8.05;;;5.05;;
48667;SDS011;34453;52.198;5.004;2023-07-16T08:45:04;12.02;;;5.70;;
48667;SDS011;34453;52.198;5.004;2023-07-16T08:47:37;15.82;;;5.13;;
48667;SDS011;34453;52.198;5.004;2023-07-16T08:50:02;6.55;;;4.53;;
48667;SDS011;34453;52.198;5.004;2023-07-16T08:52:29;14.23;;;5.68;;
48667;SDS011;34453;52.198;5.004;2023-07-16T08:54:55;6.70;;;4.47;;
48667;SDS011;34453;52.198;5.004;2023-07-16T08:57:21;7.90;;;4.22;;
48667;SDS011;34453;52.198;5.004;2023-07-16T08:59:48;10.45;;;4.75;;
48667;SDS011;34453;52.198;5.004;2023-07-16T09:02:16;10.32;;;5.57;;
48667;SDS011;34453;52.198;5.004;2023-07-16T09:04:43;6.53;;;5.13;;
48667;SDS011;34453;52.198;5.004;2023-07-16T09:07:08;7.75;;;5.57;;
48667;SDS011;34453;52.198;5.004;2023-07-16T09:09:34;12.38;;;5.65;;
48667;SDS011;34453;52.198;5.004;2023-07-16T09:12:00;10.43;;;5.05;;
48667;SDS011;34453;52.198;5.004;2023-07-16T09:14:27;13.95;;;5.75;;
48667;SDS011;34453;52.198;5.004;2023-07-16T09:16:52;13.15;;;5.25;;
48667;SDS011;34453;52.198;5.004;2023-07-16T09:19:19;8.88;;;5.35;;
48667;SDS011;34453;52.198;5.004;2023-07-16T09:21:48;9.98;;;5.15;;
48667;SDS011;34453;52.198;5.004;2023-07-16T09:24:15;9.23;;;6.10;;
48667;SDS011;34453;52.198;5.004;2023-07-16T09:26:53;8.02;;;5.53;;
48667;SDS011;34453;52.198;5.004;2023-07-16T09:29:24;8.50;;;5.50;;
48667;SDS011;34453;52.198;5.004;2023-07-16T09:32:00;9.57;;;4.50;;
48667;SDS011;34453;52.198;5.004;2023-07-16T09:34:30;9.98;;;5.13;;
48667;SDS011;34453;52.198;5.004;2023-07-16T09:36:56;7.28;;;4.18;;
48667;SDS011;34453;52.198;5.004;2023-07-16T09:39:25;7.28;;;4.13;;
48667;SDS011;34453;52.198;5.004;2023-07-16T09:41:52;11.32;;;4.28;;
48667;SDS011;34453;52.198;5.004;2023-07-16T09:44:19;5.10;;;3.85;;
48667;SDS011;34453;52.198;5.004;2023-07-16T09:46:45;8.35;;;3.95;;
48667;SDS011;34453;52.198;5.004;2023-07-16T09:49:11;6.97;;;4.47;;
48667;SDS011;34453;52.198;5.004;2023-07-16T09:51:37;7.55;;;4.15;;
48667;SDS011;34453;52.198;5.004;2023-07-16T09:54:04;9.05;;;3.95;;
48667;SDS011;34453;52.198;5.004;2023-07-16T09:56:41;7.65;;;4.03;;
48667;SDS011;34453;52.198;5.004;2023-07-16T09:59:11;7.07;;;3.92;;
48667;SDS011;34453;52.198;5.004;2023-07-16T10:01:39;8.10;;;4.28;;
48667;SDS011;34453;52.198;5.004;2023-07-16T10:04:12;10.55;;;3.95;;
48667;SDS011;34453;52.198;5.004;2023-07-16T10:06:59;14.43;;;3.60;;
48667;SDS011;34453;52.198;5.004;2023-07-16T10:09:32;7.83;;;4.00;;
48667;SDS011;34453;52.198;5.004;2023-07-16T10:14:38;7.50;;;3.95;;
48667;SDS011;34453;52.198;5.004;2023-07-16T10:17:05;8.27;;;3.72;;
48667;SDS011;34453;52.198;5.004;2023-07-16T10:19:30;6.40;;;3.83;;
48667;SDS011;34453;52.198;5.004;2023-07-16T10:21:56;7.28;;;2.83;;
48667;SDS011;34453;52.198;5.004;2023-07-16T10:24:21;8.88;;;4.43;;
48667;SDS011;34453;52.198;5.004;2023-07-16T10:26:52;9.35;;;3.67;;
48667;SDS011;34453;52.198;5.004;2023-07-16T10:29:18;7.15;;;3.75;;
48667;SDS011;34453;52.198;5.004;2023-07-16T10:31:43;5.68;;;4.05;;
48667;SDS011;34453;52.198;5.004;2023-07-16T10:34:11;10.82;;;4.00;;
48667;SDS011;34453;52.198;5.004;2023-07-16T10:36:39;12.52;;;5.15;;
48667;SDS011;34453;52.198;5.004;2023-07-16T10:39:14;7.38;;;4.80;;
48667;SDS011;34453;52.198;5.004;2023-07-16T10:41:42;9.48;;;3.97;;
48667;SDS011;34453;52.198;5.004;2023-07-16T10:44:08;5.60;;;3.90;;
48667;SDS011;34453;52.198;5.004;2023-07-16T10:46:37;5.00;;;3.60;;
48667;SDS011;34453;52.198;5.004;2023-07-16T10:49:04;11.43;;;4.47;;
48667;SDS011;34453;52.198;5.004;2023-07-16T10:51:29;11.20;;;4.25;;
48667;SDS011;34453;52.198;5.004;2023-07-16T10:53:55;14.32;;;4.50;;
48667;SDS011;34453;52.198;5.004;2023-07-16T10:56:21;9.20;;;4.07;;
48667;SDS011;34453;52.198;5.004;2023-07-16T10:58:47;10.95;;;3.97;;
48667;SDS011;34453;52.198;5.004;2023-07-16T11:01:14;7.40;;;3.33;;
48667;SDS011;34453;52.198;5.004;2023-07-16T11:03:40;6.00;;;4.18;;
48667;SDS011;34453;52.198;5.004;2023-07-16T11:06:06;11.18;;;3.20;;
48667;SDS011;34453;52.198;5.004;2023-07-16T11:08:34;7.40;;;3.10;;
48667;SDS011;34453;52.198;5.004;2023-07-16T11:11:00;11.40;;;3.38;;
48667;SDS011;34453;52.198;5.004;2023-07-16T11:13:26;4.90;;;3.13;;
48667;SDS011;34453;52.198;5.004;2023-07-16T11:15:56;4.90;;;3.20;;
48667;SDS011;34453;52.198;5.004;2023-07-16T11:18:22;7.10;;;2.95;;
48667;SDS011;34453;52.198;5.004;2023-07-16T11:20:53;4.55;;;2.25;;
48667;SDS011;34453;52.198;5.004;2023-07-16T11:23:18;2.90;;;2.65;;
48667;SDS011;34453;52.198;5.004;2023-07-16T11:25:48;6.40;;;2.92;;
48667;SDS011;34453;52.198;5.004;2023-07-16T11:28:14;6.40;;;2.42;;
48667;SDS011;34453;52.198;5.004;2023-07-16T11:30:40;12.73;;;2.80;;
48667;SDS011;34453;52.198;5.004;2023-07-16T11:33:11;6.80;;;2.50;;
48667;SDS011;34453;52.198;5.004;2023-07-16T11:38:06;5.32;;;2.95;;
48667;SDS011;34453;52.198;5.004;2023-07-16T11:40:35;7.43;;;2.30;;
48667;SDS011;34453;52.198;5.004;2023-07-16T11:43:10;5.20;;;2.85;;
48667;SDS011;34453;52.198;5.004;2023-07-16T11:45:36;3.25;;;2.00;;
48667;SDS011;34453;52.198;5.004;2023-07-16T11:48:03;7.63;;;2.42;;
48667;SDS011;34453;52.198;5.004;2023-07-16T11:50:29;3.83;;;2.70;;
48667;SDS011;34453;52.198;5.004;2023-07-16T11:52:56;4.60;;;2.97;;
48667;SDS011;34453;52.198;5.004;2023-07-16T11:55:24;5.15;;;2.80;;
48667;SDS011;34453;52.198;5.004;2023-07-16T11:57:49;8.02;;;2.70;;
48667;SDS011;34453;52.198;5.004;2023-07-16T12:00:15;5.13;;;2.70;;
48667;SDS011;34453;52.198;5.004;2023-07-16T12:02:42;4.70;;;3.58;;
48667;SDS011;34453;52.198;5.004;2023-07-16T12:05:08;5.47;;;2.55;;
48667;SDS011;34453;52.198;5.004;2023-07-16T12:07:37;5.70;;;2.47;;
48667;SDS011;34453;52.198;5.004;2023-07-16T12:10:03;6.43;;;2.33;;
48667;SDS011;34453;52.198;5.004;2023-07-16T12:12:30;9.65;;;3.10;;
48667;SDS011;34453;52.198;5.004;2023-07-16T12:14:56;6.38;;;2.47;;
48667;SDS011;34453;52.198;5.004;2023-07-16T12:17:22;4.60;;;2.42;;
48667;SDS011;34453;52.198;5.004;2023-07-16T12:19:50;5.03;;;2.25;;
48667;SDS011;34453;52.198;5.004;2023-07-16T12:22:20;8.93;;;2.38;;
48667;SDS011;34453;52.198;5.004;2023-07-16T12:24:47;6.80;;;3.08;;
48667;SDS011;34453;52.198;5.004;2023-07-16T12:27:17;3.38;;;2.10;;
48667;SDS011;34453;52.198;5.004;2023-07-16T12:29:45;8.15;;;2.38;;
48667;SDS011;34453;52.198;5.004;2023-07-16T12:32:13;6.30;;;1.88;;
48667;SDS011;34453;52.198;5.004;2023-07-16T12:34:40;6.45;;;3.60;;
48667;SDS011;34453;52.198;5.004;2023-07-16T12:37:06;4.70;;;1.42;;
48667;SDS011;34453;52.198;5.004;2023-07-16T12:39:34;7.43;;;2.88;;
48667;SDS011;34453;52.198;5.004;2023-07-16T12:42:00;6.68;;;1.67;;
48667;SDS011;34453;52.198;5.004;2023-07-16T12:44:25;2.97;;;1.42;;
48667;SDS011;34453;52.198;5.004;2023-07-16T12:46:51;3.72;;;1.90;;
48667;SDS011;34453;52.198;5.004;2023-07-16T12:49:17;3.05;;;1.70;;
48667;SDS011;34453;52.198;5.004;2023-07-16T12:51:44;8.38;;;1.70;;
48667;SDS011;34453;52.198;5.004;2023-07-16T12:54:10;11.10;;;2.22;;
48667;SDS011;34453;52.198;5.004;2023-07-16T12:56:35;5.95;;;2.05;;
48667;SDS011;34453;52.198;5.004;2023-07-16T12:59:01;3.35;;;1.20;;
48667;SDS011;34453;52.198;5.004;2023-07-16T13:01:26;6.05;;;1.40;;
48667;SDS011;34453;52.198;5.004;2023-07-16T13:03:52;7.68;;;2.15;;
48667;SDS011;34453;52.198;5.004;2023-07-16T13:06:17;5.10;;;1.42;;
48667;SDS011;34453;52.198;5.004;2023-07-16T13:08:43;4.72;;;1.98;;
48667;SDS011;34453;52.198;5.004;2023-07-16T13:11:10;5.32;;;1.90;;
48667;SDS011;34453;52.198;5.004;2023-07-16T13:13:36;3.72;;;1.40;;
48667;SDS011;34453;52.198;5.004;2023-07-16T13:16:01;7.43;;;1.40;;
48667;SDS011;34453;52.198;5.004;2023-07-16T13:18:27;4.15;;;1.27;;
48667;SDS011;34453;52.198;5.004;2023-07-16T13:20:53;7.30;;;1.27;;
48667;SDS011;34453;52.198;5.004;2023-07-16T13:23:19;7.60;;;1.60;;
48667;SDS011;34453;52.198;5.004;2023-07-16T13:25:44;5.85;;;1.70;;
48667;SDS011;34453;52.198;5.004;2023-07-16T13:28:10;7.30;;;2.50;;
48667;SDS011;34453;52.198;5.004;2023-07-16T13:30:35;3.10;;;1.30;;
48667;SDS011;34453;52.198;5.004;2023-07-16T13:33:01;9.90;;;3.50;;
48667;SDS011;34453;52.198;5.004;2023-07-16T13:35:27;6.32;;;1.50;;
48667;SDS011;34453;52.198;5.004;2023-07-16T13:37:53;9.48;;;2.22;;
48667;SDS011;34453;52.198;5.004;2023-07-16T13:40:19;5.22;;;1.50;;
48667;SDS011;34453;52.198;5.004;2023-07-16T13:42:48;5.10;;;1.33;;
48667;SDS011;34453;52.198;5.004;2023-07-16T13:45:14;8.48;;;1.58;;
48667;SDS011;34453;52.198;5.004;2023-07-16T13:47:40;8.02;;;1.58;;
48667;SDS011;34453;52.198;5.004;2023-07-16T13:50:06;12.10;;;2.17;;
48667;SDS011;34453;52.198;5.004;2023-07-16T13:52:33;4.13;;;1.52;;
48667;SDS011;34453;52.198;5.004;2023-07-16T13:54:59;10.32;;;2.13;;
48667;SDS011;34453;52.198;5.004;2023-07-16T13:57:25;9.68;;;2.22;;
48667;SDS011;34453;52.198;5.004;2023-07-16T13:59:51;5.78;;;1.25;;
48667;SDS011;34453;52.198;5.004;2023-07-16T14:02:16;5.47;;;1.38;;
48667;SDS011;34453;52.198;5.004;2023-07-16T14:04:42;3.50;;;1.60;;
48667;SDS011;34453;52.198;5.004;2023-07-16T14:07:07;7.07;;;1.58;;
48667;SDS011;34453;52.198;5.004;2023-07-16T14:09:33;12.88;;;3.00;;
48667;SDS011;34453;52.198;5.004;2023-07-16T14:11:59;9.00;;;1.50;;
48667;SDS011;34453;52.198;5.004;2023-07-16T14:14:25;9.13;;;1.98;;
48667;SDS011;34453;52.198;5.004;2023-07-16T14:16:51;8.27;;;1.40;;
48667;SDS011;34453;52.198;5.004;2023-07-16T14:19:17;8.23;;;1.30;;
48667;SDS011;34453;52.198;5.004;2023-07-16T14:21:42;6.70;;;1.33;;
48667;SDS011;34453;52.198;5.004;2023-07-16T14:24:08;11.13;;;2.22;;
48667;SDS011;34453;52.198;5.004;2023-07-16T14:26:34;12.18;;;3.15;;
48667;SDS011;34453;52.198;5.004;2023-07-16T14:28:59;7.40;;;1.60;;
48667;SDS011;34453;52.198;5.004;2023-07-16T14:31:25;9.10;;;1.80;;
48667;SDS011;34453;52.198;5.004;2023-07-16T14:33:51;5.70;;;1.95;;
48667;SDS011;34453;52.198;5.004;2023-07-16T14:36:17;6.63;;;1.40;;
48667;SDS011;34453;52.198;5.004;2023-07-16T14:38:44;10.43;;;1.85;;
48667;SDS011;34453;52.198;5.004;2023-07-16T14:41:10;7.63;;;2.83;;
48667;SDS011;34453;52.198;5.004;2023-07-16T14:43:36;7.47;;;1.70;;
48667;SDS011;34453;52.198;5.004;2023-07-16T14:46:02;7.55;;;2.08;;
48667;SDS011;34453;52.198;5.004;2023-07-16T14:48:28;12.38;;;1.90;;